Orleans, California
Current Conditions -  °F | °C
As of 5:53 AM on Monday 20 Oct 2014 (Local Time) from KACV Reporting Station
Light Rain Light Rain  
Wind Chill: 57°   Ceiling: 3500
Heat Index: 57°   Visibility: 3mi
Dew Point: 56°   Wind: 7mph
Humidity: 96%   Direction: 140°SE
Pressure: 29.83"   Gusts: NA
Location:  41.3°N, 123.54°W
Report Text: KACV 201253Z AUTO 14006KT 3SM -RA BR FEW013 BKN035 OVC055 14/13 A2983 RMK AO2 SLP107 P0003 T01390133
Loading
Personal Weather Stations






























Interactive Weather Map
Tropical Storm Tracking
New forecast layout! Learn more

10-Day Weather Forecast

Advertisements
Track Severe Weather on mobile